Time;durP1;ratioP1;P1;durP2;ratioP2;P2;SDS_P1;SDS_P2;PMS_P1;PMS_P2;Temp;Humidity;BMP_temperature;BMP_pressure;BME280_temperature;BME280_humidity;BME280_pressure;Samples;Min_cycle;Max_cycle;Signal;HPM_P1;HPM_P2
2024/01/08 00:02:23;;;;;;;9.43;4.93;;;;;;;-4.95;80.60;102034.28;5044594;28;20458;-74
2024/01/08 00:04:49;;;;;;;9.50;5.37;;;;;;;-4.99;78.89;102034.81;5049124;28;20485;-75
2024/01/08 00:07:15;;;;;;;10.20;5.47;;;;;;;-5.10;79.42;102031.00;5047227;28;20446;-74
2024/01/08 00:09:44;;;;;;;11.60;5.20;;;;;;;-5.14;78.93;102041.88;5050921;28;20430;-75
2024/01/08 00:12:10;;;;;;;11.10;4.80;;;;;;;-5.23;80.50;102041.19;5043205;28;20461;-74
2024/01/08 00:14:37;;;;;;;9.53;5.37;;;;;;;-5.34;79.40;102039.13;5049679;28;20941;-75
2024/01/08 00:17:04;;;;;;;12.17;6.17;;;;;;;-5.41;79.97;102052.91;5045767;28;20476;-75
2024/01/08 00:19:31;;;;;;;10.07;5.83;;;;;;;-5.57;78.83;102053.16;5047962;28;20495;-74
2024/01/08 00:21:58;;;;;;;9.80;4.60;;;;;;;-5.68;80.76;102044.19;5047608;28;20469;-74
2024/01/08 00:24:24;;;;;;;8.47;5.27;;;;;;;-5.83;80.83;102060.66;5048402;28;20513;-75
2024/01/08 00:26:50;;;;;;;9.73;5.07;;;;;;;-5.93;79.98;102065.31;5046414;28;20453;-74
2024/01/08 00:29:17;;;;;;;7.47;4.33;;;;;;;-6.05;80.26;102061.63;5043725;28;20450;-75
2024/01/08 00:31:43;;;;;;;10.33;5.17;;;;;;;-6.15;80.97;102068.81;5044177;28;21027;-75
2024/01/08 00:34:10;;;;;;;8.13;4.47;;;;;;;-6.24;80.92;102064.75;5048342;28;20922;-74
2024/01/08 00:36:37;;;;;;;13.00;5.17;;;;;;;-6.44;80.90;102063.69;5043071;28;20457;-74
2024/01/08 00:39:04;;;;;;;7.93;4.80;;;;;;;-6.50;81.11;102066.97;5046907;28;20461;-75
2024/01/08 00:41:30;;;;;;;9.77;5.17;;;;;;;-6.63;81.60;102070.16;5046553;28;20489;-74
2024/01/08 00:43:57;;;;;;;7.97;5.10;;;;;;;-6.67;81.27;102079.22;5047777;28;20825;-74
2024/01/08 00:46:24;;;;;;;10.33;4.67;;;;;;;-6.79;81.68;102074.69;5045715;28;20450;-75
2024/01/08 00:48:50;;;;;;;9.27;4.50;;;;;;;-6.84;82.21;102079.56;5041963;28;20454;-74
2024/01/08 00:51:16;;;;;;;10.53;5.27;;;;;;;-6.94;82.25;102073.88;5050379;28;20804;-75
2024/01/08 00:53:44;;;;;;;12.13;5.40;;;;;;;-7.01;82.42;102068.66;5040985;28;20489;-74
2024/01/08 00:56:10;;;;;;;9.47;5.17;;;;;;;-7.06;82.50;102073.50;5048243;28;20458;-74
2024/01/08 00:58:41;;;;;;;9.97;4.97;;;;;;;-7.15;82.55;102082.22;5053529;28;20458;-74
2024/01/08 01:01:09;;;;;;;8.13;4.73;;;;;;;-7.21;81.43;102085.50;5053216;28;20558;-74
2024/01/08 01:03:36;;;;;;;8.80;5.13;;;;;;;-7.25;81.89;102086.03;5042189;28;20480;-73
2024/01/08 01:06:03;;;;;;;14.77;5.90;;;;;;;-7.29;83.14;102085.59;5050802;28;20467;-73
2024/01/08 01:08:29;;;;;;;9.50;4.53;;;;;;;-7.29;82.52;102084.78;5045935;28;20465;-74
2024/01/08 01:10:57;;;;;;;8.80;4.97;;;;;;;-7.31;81.76;102094.41;5044063;28;20467;-74
2024/01/08 01:13:23;;;;;;;9.60;5.13;;;;;;;-7.30;82.40;102099.34;5048127;28;20446;-73
2024/01/08 01:15:49;;;;;;;10.57;5.70;;;;;;;-7.29;82.84;102093.28;5065492;28;20460;-74
2024/01/08 01:18:16;;;;;;;10.13;5.33;;;;;;;-7.24;83.05;102108.97;5048647;28;20457;-74
2024/01/08 01:20:42;;;;;;;14.00;4.90;;;;;;;-7.21;83.87;102106.03;5049616;28;20470;-74
2024/01/08 01:23:11;;;;;;;12.13;5.00;;;;;;;-7.17;83.75;102109.84;5053681;28;20807;-74
2024/01/08 01:25:37;;;;;;;12.13;4.67;;;;;;;-7.14;84.35;102111.28;5047548;28;20453;-74
2024/01/08 01:28:06;;;;;;;11.43;4.80;;;;;;;-7.10;83.87;102109.97;5049927;28;20476;-74
2024/01/08 01:30:32;;;;;;;12.17;5.30;;;;;;;-7.07;83.63;102109.59;5048065;28;20472;-74
2024/01/08 01:32:58;;;;;;;11.23;5.93;;;;;;;-7.04;84.25;102114.41;5047429;28;20475;-73
2024/01/08 01:35:25;;;;;;;9.57;5.20;;;;;;;-7.03;84.72;102096.25;5044939;28;20465;-74
2024/01/08 01:37:51;;;;;;;11.03;4.87;;;;;;;-7.01;85.05;102102.00;5040770;28;20454;-74
2024/01/08 01:40:17;;;;;;;7.43;4.83;;;;;;;-6.98;84.17;102101.69;5046398;28;20483;-74
2024/01/08 01:42:44;;;;;;;9.47;4.20;;;;;;;-6.96;83.63;102104.03;5048245;28;20782;-74
2024/01/08 01:45:13;;;;;;;7.87;4.40;;;;;;;-6.96;83.40;102101.47;5044392;28;20501;-74
2024/01/08 01:47:40;;;;;;;9.37;4.67;;;;;;;-6.94;83.75;102105.47;5051031;28;20473;-74
2024/01/08 01:50:09;;;;;;;10.70;5.30;;;;;;;-6.93;84.34;102109.66;5048724;28;20441;-74
2024/01/08 01:52:35;;;;;;;11.00;5.07;;;;;;;-6.94;82.90;102109.81;5049127;28;20457;-74
2024/01/08 01:55:02;;;;;;;8.27;5.30;;;;;;;-6.90;84.45;102098.22;5049240;28;20477;-73
2024/01/08 01:57:28;;;;;;;14.80;6.67;;;;;;;-6.92;83.62;102108.69;5048798;28;20519;-74
2024/01/08 01:59:54;;;;;;;7.87;4.73;;;;;;;-6.91;84.54;102107.69;5049249;28;20836;-73
2024/01/08 02:02:27;;;;;;;12.70;6.20;;;;;;;-6.89;84.42;102110.09;5042493;28;20454;-74
2024/01/08 02:04:55;;;;;;;9.00;5.50;;;;;;;-6.87;83.85;102110.72;5044498;28;20482;-73
2024/01/08 02:07:21;;;;;;;7.93;4.80;;;;;;;-6.89;84.17;102108.31;5045580;28;20448;-73
2024/01/08 02:09:49;;;;;;;11.43;5.37;;;;;;;-6.88;84.30;102120.16;5042205;28;20453;-74
2024/01/08 02:12:16;;;;;;;11.07;6.30;;;;;;;-6.89;84.37;102115.22;5046937;28;20465;-73
2024/01/08 02:14:43;;;;;;;10.13;4.63;;;;;;;-6.90;85.11;102114.41;5045217;28;20967;-73
2024/01/08 02:17:09;;;;;;;7.87;4.70;;;;;;;-6.91;84.38;102117.16;5040412;28;20550;-74
2024/01/08 02:19:37;;;;;;;10.90;5.90;;;;;;;-6.94;83.84;102108.03;5039368;28;20471;-73
2024/01/08 02:22:03;;;;;;;8.87;4.63;;;;;;;-6.95;83.42;102118.50;5048189;28;20481;-73
2024/01/08 02:24:31;;;;;;;9.83;5.00;;;;;;;-6.91;84.37;102125.66;5037176;28;20470;-73
2024/01/08 02:27:01;;;;;;;8.57;5.23;;;;;;;-6.93;83.99;102124.25;5047206;28;20477;-74
2024/01/08 02:29:28;;;;;;;9.30;5.10;;;;;;;-6.93;83.89;102130.19;5045096;28;20450;-74
2024/01/08 02:31:54;;;;;;;7.73;5.00;;;;;;;-6.95;81.95;102136.47;5046585;28;20451;-73
2024/01/08 02:34:25;;;;;;;11.73;5.00;;;;;;;-6.96;82.41;102132.28;5049479;28;20996;-73
2024/01/08 02:36:51;;;;;;;9.53;4.83;;;;;;;-7.00;81.59;102136.97;5045394;28;21055;-73
2024/01/08 02:39:20;;;;;;;9.73;5.23;;;;;;;-7.01;82.73;102137.94;5046340;28;20461;-74
2024/01/08 02:41:47;;;;;;;8.27;4.70;;;;;;;-7.01;83.79;102132.81;5069345;28;20473;-73
2024/01/08 02:44:14;;;;;;;9.07;4.63;;;;;;;-7.00;84.46;102134.41;5049323;28;21039;-73
2024/01/08 02:46:40;;;;;;;10.73;5.60;;;;;;;-7.05;82.72;102144.38;5044577;28;20446;-73
2024/01/08 02:49:06;;;;;;;9.20;5.03;;;;;;;-7.03;84.14;102146.78;5045624;28;20462;-74
2024/01/08 02:51:33;;;;;;;11.20;5.53;;;;;;;-7.04;82.75;102152.91;5041867;28;20446;-73
2024/01/08 02:53:59;;;;;;;10.93;5.30;;;;;;;-7.08;82.25;102152.47;5045370;28;20470;-74
2024/01/08 02:56:25;;;;;;;8.33;4.67;;;;;;;-7.05;83.55;102157.22;5043760;28;20453;-73
2024/01/08 02:58:53;;;;;;;9.57;4.93;;;;;;;-7.05;82.82;102170.06;5046395;28;20496;-73
2024/01/08 03:01:20;;;;;;;8.67;4.47;;;;;;;-7.02;82.90;102174.06;5047560;28;20474;-73
2024/01/08 03:03:46;;;;;;;8.33;5.10;;;;;;;-7.03;83.57;102168.13;5055726;28;20827;-74
2024/01/08 03:06:12;;;;;;;7.73;4.93;;;;;;;-7.02;83.18;102172.28;5042638;28;20458;-74
2024/01/08 03:08:39;;;;;;;7.77;4.53;;;;;;;-7.01;83.68;102173.88;5049903;28;20454;-73
2024/01/08 03:11:05;;;;;;;9.30;5.00;;;;;;;-7.04;84.18;102176.78;5046322;28;20447;-73
2024/01/08 03:13:31;;;;;;;7.80;4.67;;;;;;;-7.03;83.53;102177.59;5044249;28;20466;-73
2024/01/08 03:15:59;;;;;;;8.60;4.67;;;;;;;-7.06;82.64;102189.00;5046051;28;20537;-74
2024/01/08 03:18:26;;;;;;;9.13;5.30;;;;;;;-7.08;84.10;102192.72;5045962;28;20446;-74
2024/01/08 03:20:52;;;;;;;9.57;5.37;;;;;;;-7.11;83.26;102193.03;5042567;28;20471;-74
2024/01/08 03:23:18;;;;;;;10.97;5.90;;;;;;;-7.12;83.10;102201.72;5044768;28;20445;-73
2024/01/08 03:25:45;;;;;;;8.10;5.27;;;;;;;-7.16;84.25;102203.00;5048996;28;20463;-73
2024/01/08 03:28:14;;;;;;;10.77;4.93;;;;;;;-7.20;82.82;102202.56;5047545;28;20552;-74
2024/01/08 03:30:41;;;;;;;10.43;5.23;;;;;;;-7.25;83.28;102211.75;5043834;28;20454;-74
2024/01/08 03:33:09;;;;;;;13.87;5.47;;;;;;;-7.28;81.61;102219.78;5044949;28;20542;-74
2024/01/08 03:35:35;;;;;;;10.63;5.50;;;;;;;-7.30;81.67;102216.59;5050301;28;20446;-74
2024/01/08 03:38:01;;;;;;;8.17;4.63;;;;;;;-7.31;83.34;102213.22;5045534;28;20441;-73
2024/01/08 03:40:28;;;;;;;9.57;5.80;;;;;;;-7.32;82.59;102213.38;5046238;28;20532;-74
2024/01/08 03:42:54;;;;;;;9.57;5.47;;;;;;;-7.35;82.47;102209.38;5051590;28;20480;-73
2024/01/08 03:45:20;;;;;;;12.03;5.87;;;;;;;-7.35;82.40;102221.44;5049211;28;20469;-74
2024/01/08 03:47:47;;;;;;;10.30;6.00;;;;;;;-7.39;81.41;102220.16;5055825;28;20470;-74
2024/01/08 03:50:15;;;;;;;12.30;5.47;;;;;;;-7.44;83.20;102225.81;5041288;28;20965;-74
2024/01/08 03:52:42;;;;;;;11.90;5.53;;;;;;;-7.43;82.25;102239.41;5051644;28;20457;-73
2024/01/08 03:55:09;;;;;;;8.83;5.33;;;;;;;-7.45;84.33;102225.97;5045740;28;20496;-74
2024/01/08 03:57:36;;;;;;;10.60;5.70;;;;;;;-7.51;81.69;102226.66;5048411;28;20507;-74
2024/01/08 04:00:02;;;;;;;11.07;6.13;;;;;;;-7.50;84.63;102230.81;5043021;28;20446;-73
2024/01/08 04:02:39;;;;;;;15.07;5.70;;;;;;;-7.54;83.61;102232.91;5044711;28;20817;-74
2024/01/08 04:05:06;;;;;;;14.37;6.63;;;;;;;-7.56;84.33;102239.94;5043989;28;20474;-74
2024/01/08 04:07:34;;;;;;;10.63;5.97;;;;;;;-7.56;85.00;102241.75;5050009;28;20452;-74
2024/01/08 04:10:00;;;;;;;10.73;5.77;;;;;;;-7.59;84.54;102248.00;5042981;28;20544;-74
2024/01/08 04:12:26;;;;;;;14.97;6.13;;;;;;;-7.56;85.03;102244.31;5043347;28;20454;-74
2024/01/08 04:14:53;;;;;;;13.13;6.80;;;;;;;-7.59;85.26;102253.13;5053595;28;20479;-74
2024/01/08 04:17:19;;;;;;;12.00;5.80;;;;;;;-7.60;85.77;102250.72;5049698;28;20469;-73
2024/01/08 04:19:47;;;;;;;8.43;5.77;;;;;;;-7.60;85.23;102260.97;5052364;28;21256;-74
2024/01/08 04:22:14;;;;;;;13.60;7.00;;;;;;;-7.58;85.79;102259.84;5046491;28;21004;-74
2024/01/08 04:24:41;;;;;;;13.47;6.47;;;;;;;-7.56;85.50;102259.69;5048503;28;20472;-74
2024/01/08 04:27:08;;;;;;;12.93;7.17;;;;;;;-7.57;85.84;102265.78;5043872;28;20928;-74
2024/01/08 04:29:34;;;;;;;15.03;6.43;;;;;;;-7.56;85.75;102264.81;5048500;28;20540;-74
2024/01/08 04:32:01;;;;;;;10.57;6.10;;;;;;;-7.55;86.30;102267.22;5047915;28;20802;-74
2024/01/08 04:34:29;;;;;;;11.33;5.67;;;;;;;-7.58;86.07;102275.25;5048182;28;21035;-74
2024/01/08 04:36:56;;;;;;;12.23;6.47;;;;;;;-7.59;85.83;102271.09;5045352;28;20458;-74
2024/01/08 04:39:22;;;;;;;13.43;6.93;;;;;;;-7.61;85.84;102282.47;5047315;28;20475;-74
2024/01/08 04:41:50;;;;;;;10.80;7.00;;;;;;;-7.64;85.77;102282.78;5051333;28;20474;-74
2024/01/08 04:44:16;;;;;;;8.60;5.43;;;;;;;-7.64;85.71;102273.34;5045403;28;20466;-74
2024/01/08 04:46:43;;;;;;;9.37;5.53;;;;;;;-7.65;85.73;102284.56;5045457;28;20467;-74
2024/01/08 04:49:09;;;;;;;12.60;7.13;;;;;;;-7.71;84.16;102285.19;5049803;28;20466;-74
2024/01/08 04:51:35;;;;;;;9.30;6.00;;;;;;;-7.72;85.31;102296.44;5049825;28;20466;-74
2024/01/08 04:54:02;;;;;;;12.43;6.87;;;;;;;-7.74;85.72;102302.69;5047675;28;20466;-74
2024/01/08 04:56:32;;;;;;;11.87;6.37;;;;;;;-7.79;84.58;102302.38;5043794;28;20464;-75
2024/01/08 04:58:59;;;;;;;10.03;5.70;;;;;;;-7.84;84.31;102297.75;5047675;28;20444;-74
2024/01/08 05:01:26;;;;;;;21.37;9.30;;;;;;;-7.84;85.09;102305.44;5050524;28;20477;-74
2024/01/08 05:03:54;;;;;;;10.47;6.30;;;;;;;-7.88;83.91;102316.19;5052981;28;20464;-74
2024/01/08 05:06:21;;;;;;;11.57;6.40;;;;;;;-7.87;85.52;102310.09;5048871;28;20810;-74
2024/01/08 05:08:48;;;;;;;13.73;7.10;;;;;;;-7.90;84.85;102312.97;5043402;28;20454;-74
2024/01/08 05:11:14;;;;;;;12.53;6.57;;;;;;;-7.98;85.26;102324.03;5051343;28;20449;-73
2024/01/08 05:13:41;;;;;;;11.47;6.47;;;;;;;-7.99;83.83;102326.75;5048450;28;20467;-74
2024/01/08 05:16:10;;;;;;;10.67;6.20;;;;;;;-8.00;85.96;102323.41;5050196;28;20465;-74
2024/01/08 05:18:36;;;;;;;10.30;6.23;;;;;;;-8.03;84.11;102326.28;5025033;28;20492;-74
2024/01/08 05:21:03;;;;;;;16.93;6.90;;;;;;;-8.03;84.33;102331.41;5043081;28;20475;-74
2024/01/08 05:23:30;;;;;;;11.80;6.17;;;;;;;-8.01;85.73;102331.25;5050842;28;20544;-74
2024/01/08 05:25:59;;;;;;;16.63;7.97;;;;;;;-8.06;84.54;102343.75;5047903;28;20537;-74
2024/01/08 05:28:26;;;;;;;12.97;6.20;;;;;;;-8.06;85.20;102330.94;5043258;28;20848;-73
2024/01/08 05:30:52;;;;;;;17.07;7.27;;;;;;;-8.11;84.27;102343.44;5049480;28;20459;-73
2024/01/08 05:33:20;;;;;;;12.57;6.47;;;;;;;-8.16;85.70;102353.38;5050773;28;21022;-73
2024/01/08 05:35:46;;;;;;;15.20;6.50;;;;;;;-8.22;84.92;102352.28;5049324;28;20445;-73
2024/01/08 05:38:13;;;;;;;13.93;7.60;;;;;;;-8.20;85.68;102362.34;5041933;28;20522;-74
2024/01/08 05:40:40;;;;;;;13.47;7.33;;;;;;;-8.23;85.24;102357.56;5057064;28;20464;-73
2024/01/08 05:43:09;;;;;;;12.30;6.77;;;;;;;-8.25;86.01;102362.03;5048090;28;20830;-73
2024/01/08 05:45:35;;;;;;;13.47;7.30;;;;;;;-8.27;85.96;102353.72;5048315;28;20449;-73
2024/01/08 05:48:02;;;;;;;14.10;7.47;;;;;;;-8.34;85.22;102352.78;5049965;28;20444;-73
2024/01/08 05:50:30;;;;;;;12.07;7.03;;;;;;;-8.36;85.10;102360.59;5046085;28;20543;-73
2024/01/08 05:52:57;;;;;;;12.27;6.77;;;;;;;-8.39;84.35;102366.03;5056149;28;20454;-73
2024/01/08 05:55:23;;;;;;;16.27;7.53;;;;;;;-8.40;85.55;102367.00;5045743;28;20468;-73
2024/01/08 05:57:50;;;;;;;20.83;8.20;;;;;;;-8.42;85.36;102368.94;5047401;28;21051;-73
2024/01/08 06:00:17;;;;;;;14.77;7.70;;;;;;;-8.49;84.83;102367.94;5050446;28;20788;-73
2024/01/08 06:02:44;;;;;;;11.77;7.03;;;;;;;-8.53;85.03;102374.34;5045770;28;20471;-73
2024/01/08 06:05:11;;;;;;;14.53;7.30;;;;;;;-8.59;84.35;102372.41;5047171;28;20567;-73
2024/01/08 06:07:39;;;;;;;14.63;7.00;;;;;;;-8.60;85.07;102377.69;5045363;28;20450;-73
2024/01/08 06:10:05;;;;;;;14.83;7.77;;;;;;;-8.61;85.05;102381.19;5052473;28;20446;-73
2024/01/08 06:12:32;;;;;;;14.93;7.80;;;;;;;-8.65;85.04;102378.16;5046366;28;20456;-73
2024/01/08 06:14:58;;;;;;;16.77;8.53;;;;;;;-8.73;84.91;102378.16;5049753;28;20489;-73
2024/01/08 06:17:25;;;;;;;18.43;8.33;;;;;;;-8.76;85.17;102380.22;5051596;28;20459;-73
2024/01/08 06:19:51;;;;;;;18.13;8.67;;;;;;;-8.79;85.17;102395.88;5056408;28;20450;-75
2024/01/08 06:22:18;;;;;;;18.77;9.93;;;;;;;-8.79;84.82;102390.75;5052149;28;20483;-75
2024/01/08 06:24:45;;;;;;;16.93;8.57;;;;;;;-8.82;85.20;102393.63;5046153;28;20989;-75
2024/01/08 06:27:12;;;;;;;18.20;8.27;;;;;;;-8.85;85.77;102401.63;5048052;28;20447;-74
2024/01/08 06:29:38;;;;;;;20.97;9.60;;;;;;;-8.90;85.59;102401.28;5050793;28;20443;-74
2024/01/08 06:32:05;;;;;;;18.30;10.13;;;;;;;-8.96;85.75;102407.03;5042628;28;20453;-75
2024/01/08 06:34:34;;;;;;;22.60;10.53;;;;;;;-9.03;85.17;102404.28;5050389;28;20488;-74
2024/01/08 06:37:00;;;;;;;17.30;8.23;;;;;;;-9.11;85.00;102406.78;5049976;28;20473;-74
2024/01/08 06:39:26;;;;;;;22.77;8.77;;;;;;;-9.17;85.37;102406.63;5058519;28;20453;-74
2024/01/08 06:41:54;;;;;;;14.43;7.17;;;;;;;-9.21;86.32;102418.09;5041506;28;20535;-73
2024/01/08 06:44:20;;;;;;;18.50;8.33;;;;;;;-9.30;85.94;102412.13;5049742;28;20564;-73
2024/01/08 06:46:47;;;;;;;16.13;7.87;;;;;;;-9.35;86.01;102413.53;5051725;28;20443;-74
2024/01/08 06:49:13;;;;;;;17.33;8.63;;;;;;;-9.42;85.88;102410.78;5051590;28;20443;-74
2024/01/08 06:51:40;;;;;;;15.20;8.53;;;;;;;-9.50;85.99;102422.72;5051415;28;20449;-73
2024/01/08 06:54:07;;;;;;;18.77;8.60;;;;;;;-9.53;87.23;102423.03;5045956;28;20538;-74
2024/01/08 06:56:33;;;;;;;18.80;7.40;;;;;;;-9.59;86.60;102423.59;5050721;28;20515;-74
2024/01/08 06:59:02;;;;;;;16.73;7.87;;;;;;;-9.62;87.84;102432.38;5046903;28;20450;-73
2024/01/08 07:01:29;;;;;;;16.00;7.30;;;;;;;-9.67;87.17;102433.78;5051776;28;20449;-73
2024/01/08 07:03:55;;;;;;;15.43;6.93;;;;;;;-9.69;88.16;102436.47;5050253;28;20465;-74
2024/01/08 07:06:22;;;;;;;15.13;7.67;;;;;;;-9.73;89.52;102445.38;5051901;28;20446;-74
2024/01/08 07:08:48;;;;;;;18.13;8.27;;;;;;;-9.79;88.62;102440.09;5052189;28;20434;-74
2024/01/08 07:11:20;;;;;;;23.97;9.57;;;;;;;-9.81;88.42;102450.47;5052460;28;20449;-74
2024/01/08 07:13:47;;;;;;;17.67;7.83;;;;;;;-9.87;88.61;102453.59;5052235;28;20473;-74
2024/01/08 07:16:14;;;;;;;15.37;8.67;;;;;;;-9.88;89.16;102446.88;5051878;28;20457;-74
2024/01/08 07:18:42;;;;;;;20.53;9.03;;;;;;;-9.91;89.64;102449.72;5052177;28;20824;-74
2024/01/08 07:21:09;;;;;;;16.20;9.10;;;;;;;-9.93;89.97;102456.72;5043287;28;20457;-73
2024/01/08 07:23:36;;;;;;;17.60;8.43;;;;;;;-9.96;89.42;102451.09;5058139;28;20488;-74
2024/01/08 07:26:02;;;;;;;22.10;9.20;;;;;;;-9.98;88.77;102453.03;5068469;28;20458;-73
2024/01/08 07:28:29;;;;;;;18.07;8.00;;;;;;;-9.99;89.55;102452.19;5051067;28;20450;-73
2024/01/08 07:30:56;;;;;;;21.57;8.53;;;;;;;-10.02;89.12;102456.81;5051377;28;20437;-74
2024/01/08 07:33:23;;;;;;;20.40;9.27;;;;;;;-10.04;88.30;102464.63;5047032;28;20472;-74
2024/01/08 07:35:50;;;;;;;18.83;8.47;;;;;;;-10.06;88.37;102469.09;5049532;28;20528;-74
2024/01/08 07:38:17;;;;;;;14.57;7.50;;;;;;;-10.07;88.96;102474.34;5049894;28;20481;-74
2024/01/08 07:40:43;;;;;;;16.93;9.17;;;;;;;-10.08;88.35;102480.41;5050796;28;20446;-73
2024/01/08 07:43:09;;;;;;;18.83;9.77;;;;;;;-10.09;89.01;102486.47;5032730;28;20466;-73
2024/01/08 07:45:36;;;;;;;15.23;8.13;;;;;;;-10.09;88.37;102483.91;5041926;28;20445;-73
2024/01/08 07:48:02;;;;;;;16.87;7.77;;;;;;;-10.09;88.40;102494.13;5053522;28;20946;-73
2024/01/08 07:50:30;;;;;;;14.70;8.47;;;;;;;-10.09;89.53;102494.94;5037172;28;20439;-74
2024/01/08 07:52:56;;;;;;;16.40;8.40;;;;;;;-10.09;88.32;102505.13;5051953;28;20437;-73
2024/01/08 07:55:23;;;;;;;21.83;9.03;;;;;;;-10.08;88.76;102504.22;5038750;28;20983;-74
2024/01/08 07:57:50;;;;;;;19.93;8.13;;;;;;;-10.07;88.94;102510.94;5047735;28;20446;-74
2024/01/08 08:00:17;;;;;;;18.03;7.87;;;;;;;-10.06;89.07;102509.97;5035390;28;20442;-74
2024/01/08 08:02:43;;;;;;;20.83;9.57;;;;;;;-10.07;88.99;102507.56;5037278;28;20470;-73
2024/01/08 08:05:09;;;;;;;15.20;8.07;;;;;;;-10.06;89.62;102509.16;5035878;28;20462;-74
2024/01/08 08:07:38;;;;;;;20.30;9.10;;;;;;;-10.03;89.60;102519.06;5054541;28;20445;-73
2024/01/08 08:10:05;;;;;;;19.50;9.10;;;;;;;-10.01;89.01;102514.59;5055522;28;20442;-73
2024/01/08 08:12:32;;;;;;;18.53;8.00;;;;;;;-10.00;88.11;102529.00;5047786;28;20434;-74
2024/01/08 08:14:59;;;;;;;23.97;10.30;;;;;;;-9.99;87.50;102526.28;5035749;28;20979;-73
2024/01/08 08:17:25;;;;;;;19.33;8.53;;;;;;;-9.96;89.20;102533.69;5042074;28;20454;-74
2024/01/08 08:19:53;;;;;;;20.77;9.13;;;;;;;-9.94;89.17;102533.53;5056568;28;20488;-75
2024/01/08 08:22:19;;;;;;;18.50;9.37;;;;;;;-9.93;87.69;102538.47;5052600;28;20477;-75
2024/01/08 08:24:48;;;;;;;24.37;10.73;;;;;;;-9.86;89.56;102542.09;5056467;28;20975;-75
2024/01/08 08:27:15;;;;;;;18.77;8.67;;;;;;;-9.86;89.31;102536.97;5055202;28;20956;-73
2024/01/08 08:29:45;;;;;;;18.70;9.27;;;;;;;-9.82;88.16;102550.25;5045517;28;20548;-74
2024/01/08 08:32:11;;;;;;;13.90;7.87;;;;;;;-9.79;88.24;102553.31;5045878;28;20924;-74
2024/01/08 08:34:39;;;;;;;16.10;8.97;;;;;;;-9.77;88.78;102558.28;5044314;28;20571;-74
2024/01/08 08:37:07;;;;;;;16.17;8.40;;;;;;;-9.73;88.93;102570.63;5055590;28;20696;-75
2024/01/08 08:39:33;;;;;;;23.07;9.60;;;;;;;-9.71;88.86;102562.81;5054980;28;20770;-74
2024/01/08 08:42:02;;;;;;;16.07;8.67;;;;;;;-9.68;88.20;102573.53;5062543;28;20484;-74
2024/01/08 08:44:29;;;;;;;18.97;9.03;;;;;;;-9.64;88.43;102563.84;5042681;28;20596;-74
2024/01/08 08:46:55;;;;;;;30.00;12.17;;;;;;;-9.59;88.08;102564.19;5054992;28;20539;-74
2024/01/08 08:49:21;;;;;;;19.27;8.93;;;;;;;-9.56;87.39;102569.03;5041657;28;20458;-74
2024/01/08 08:51:48;;;;;;;22.20;9.53;;;;;;;-9.53;88.36;102568.75;5037800;28;20454;-74
2024/01/08 08:54:14;;;;;;;22.60;9.73;;;;;;;-9.49;88.73;102567.47;5047268;28;20834;-74
2024/01/08 08:56:41;;;;;;;15.53;9.00;;;;;;;-9.45;88.00;102576.47;5056306;28;20525;-74
2024/01/08 08:59:08;;;;;;;18.93;7.77;;;;;;;-9.43;87.32;102574.59;5054856;28;20533;-74
2024/01/08 09:01:35;;;;;;;15.10;7.60;;;;;;;-9.41;88.32;102576.06;5038127;28;21033;-74
2024/01/08 09:04:01;;;;;;;20.70;9.00;;;;;;;-9.37;87.68;102582.47;5045432;28;20843;-74
2024/01/08 09:06:30;;;;;;;19.10;8.87;;;;;;;-9.32;86.99;102582.81;5052645;28;20484;-74
2024/01/08 09:08:57;;;;;;;17.50;8.77;;;;;;;-9.29;87.15;102591.94;5053002;28;20468;-74
2024/01/08 09:11:24;;;;;;;17.43;9.30;;;;;;;-9.27;87.36;102601.09;5065569;28;20452;-74
2024/01/08 09:13:51;;;;;;;17.30;8.67;;;;;;;-9.24;85.73;102603.34;5054319;28;20465;-74
2024/01/08 09:16:20;;;;;;;15.93;7.47;;;;;;;-9.22;87.15;102593.78;5052704;28;20458;-74
2024/01/08 09:18:47;;;;;;;16.40;8.73;;;;;;;-9.19;86.98;102606.28;5048019;28;20461;-74
2024/01/08 09:21:14;;;;;;;20.90;9.30;;;;;;;-9.15;86.34;102602.47;5054532;28;20523;-75
2024/01/08 09:23:42;;;;;;;20.57;8.47;;;;;;;-9.11;87.00;102602.97;5053691;28;20890;-74
2024/01/08 09:26:09;;;;;;;18.40;8.30;;;;;;;-9.08;86.59;102603.47;5037992;28;20454;-74
2024/01/08 09:28:35;;;;;;;20.60;8.77;;;;;;;-9.03;86.54;102614.06;5053826;28;20441;-74
2024/01/08 09:31:03;;;;;;;21.07;9.27;;;;;;;-8.96;86.37;102609.19;5053565;28;20458;-75
2024/01/08 09:33:31;;;;;;;17.00;8.00;;;;;;;-8.94;85.85;102608.06;5047609;28;20463;-74
2024/01/08 09:35:58;;;;;;;23.50;10.83;;;;;;;-8.89;85.94;102611.00;5041211;28;20454;-74
2024/01/08 09:38:24;;;;;;;14.63;7.93;;;;;;;-8.85;84.48;102611.50;5047102;28;20458;-74
2024/01/08 09:40:52;;;;;;;22.03;10.73;;;;;;;-8.83;84.85;102614.69;5052627;28;20458;-75
2024/01/08 09:43:19;;;;;;;15.67;8.33;;;;;;;-8.80;87.05;102612.63;5046717;28;20543;-74
2024/01/08 09:45:58;;;;;;;21.87;8.17;;;;;;;-8.77;87.15;102617.47;5042928;28;20964;-74
2024/01/08 09:48:25;;;;;;;17.37;8.87;;;;;;;-8.70;85.91;102615.13;5045806;28;20452;-74
2024/01/08 09:50:53;;;;;;;18.60;9.30;;;;;;;-8.66;86.02;102614.66;5051663;28;20804;-74
2024/01/08 09:53:21;;;;;;;18.27;8.33;;;;;;;-8.62;84.29;102623.66;5045472;28;20439;-74
2024/01/08 09:55:49;;;;;;;18.60;9.70;;;;;;;-8.60;83.54;102621.72;5044580;28;20537;-74
2024/01/08 09:58:16;;;;;;;17.27;9.80;;;;;;;-8.55;85.41;102629.75;5049508;28;20479;-74
2024/01/08 10:00:43;;;;;;;16.53;7.40;;;;;;;-8.51;84.47;102636.19;5052501;28;20464;-74
2024/01/08 10:03:09;;;;;;;15.63;7.77;;;;;;;-8.48;84.00;102630.78;5047927;28;20524;-74
2024/01/08 10:05:36;;;;;;;18.63;8.53;;;;;;;-8.42;83.86;102642.16;5046027;28;20476;-74
2024/01/08 10:08:04;;;;;;;19.23;8.90;;;;;;;-8.38;82.98;102633.22;5047080;28;20991;-74
2024/01/08 10:10:32;;;;;;;17.90;8.43;;;;;;;-8.34;84.76;102637.09;5052772;28;20445;-74
2024/01/08 10:12:59;;;;;;;15.00;7.50;;;;;;;-8.32;82.85;102630.03;5051484;28;20457;-75
2024/01/08 10:15:25;;;;;;;17.30;7.10;;;;;;;-8.27;83.22;102636.34;5050300;28;20477;-74
2024/01/08 10:17:54;;;;;;;14.63;7.43;;;;;;;-8.22;82.68;102623.88;5047682;28;21050;-74
2024/01/08 10:20:20;;;;;;;14.70;7.60;;;;;;;-8.19;83.06;102628.63;5037603;28;20449;-73
2024/01/08 10:22:47;;;;;;;14.60;7.60;;;;;;;-8.13;82.93;102629.78;5051469;28;20484;-74
2024/01/08 10:25:21;;;;;;;12.67;7.33;;;;;;;-8.08;83.06;102627.56;5053839;28;20845;-74
2024/01/08 10:27:47;;;;;;;15.77;7.97;;;;;;;-8.04;80.67;102629.66;5046357;28;20463;-73
2024/01/08 10:30:14;;;;;;;15.87;7.83;;;;;;;-8.01;82.85;102631.13;5049461;28;20459;-74
2024/01/08 10:32:41;;;;;;;12.30;7.00;;;;;;;-7.98;81.90;102638.50;5048102;28;20449;-74
2024/01/08 10:35:09;;;;;;;13.73;7.40;;;;;;;-7.95;83.76;102626.19;5047976;28;21018;-74
2024/01/08 10:37:38;;;;;;;23.43;12.37;;;;;;;-7.90;83.69;102633.41;5046924;28;20463;-74
2024/01/08 10:40:08;;;;;;;14.30;6.27;;;;;;;-7.87;82.35;102633.09;5050519;28;20462;-74
2024/01/08 10:42:38;;;;;;;15.83;7.37;;;;;;;-7.83;82.68;102630.06;5046635;28;20475;-73
2024/01/08 10:45:06;;;;;;;11.40;6.77;;;;;;;-7.77;81.56;102623.50;5047012;28;20554;-74
2024/01/08 10:47:36;;;;;;;15.37;7.23;;;;;;;-7.76;83.38;102625.91;5038847;28;20512;-74
2024/01/08 10:50:05;;;;;;;14.93;7.10;;;;;;;-7.70;82.26;102627.88;5049092;28;20454;-74
2024/01/08 10:52:35;;;;;;;11.47;6.80;;;;;;;-7.68;82.00;102620.81;5045993;28;20819;-74
2024/01/08 10:55:04;;;;;;;10.47;5.90;;;;;;;-7.63;82.04;102626.28;5045487;28;20483;-73
2024/01/08 10:57:42;;;;;;;11.93;7.07;;;;;;;-7.61;82.29;102621.78;5048896;28;20514;-74
2024/01/08 11:00:09;;;;;;;14.27;7.03;;;;;;;-7.56;82.74;102629.00;5040557;28;20446;-73
2024/01/08 11:02:37;;;;;;;13.50;7.50;;;;;;;-7.52;81.45;102618.28;5045951;28;20595;-74
2024/01/08 11:05:05;;;;;;;12.03;6.93;;;;;;;-7.48;81.92;102621.31;5047796;28;20483;-73
2024/01/08 11:07:34;;;;;;;12.97;6.53;;;;;;;-7.44;81.58;102617.47;5039657;28;20536;-73
2024/01/08 11:10:06;;;;;;;16.27;7.37;;;;;;;-7.41;80.82;102615.41;5046339;28;20472;-73
2024/01/08 11:12:35;;;;;;;14.17;7.17;;;;;;;-7.37;81.55;102614.13;5047718;28;20543;-73
2024/01/08 11:15:04;;;;;;;12.23;6.13;;;;;;;-7.32;82.77;102608.50;5043122;28;20561;-73
2024/01/08 11:17:31;;;;;;;13.53;6.97;;;;;;;-7.28;83.15;102617.50;5042907;28;20441;-73
2024/01/08 11:19:59;;;;;;;15.00;7.40;;;;;;;-7.24;82.01;102614.47;5051824;28;20942;-73